createdAt,value
2019-02-25T00:01:27.217Z,4.10
2019-02-25T00:03:55.507Z,5.07
2019-02-25T00:06:23.787Z,5.27
2019-02-25T00:08:52.062Z,4.47
2019-02-25T00:11:20.320Z,4.70
2019-02-25T00:13:48.610Z,4.20
2019-02-25T00:16:16.862Z,4.83
2019-02-25T00:18:45.145Z,4.83
2019-02-25T00:21:13.439Z,4.07
2019-02-25T00:23:41.777Z,4.50
2019-02-25T00:26:10.115Z,5.20
2019-02-25T00:28:38.383Z,5.60
2019-02-25T00:31:06.662Z,5.80
2019-02-25T00:33:34.908Z,5.90
2019-02-25T00:36:03.190Z,6.70
2019-02-25T00:38:31.461Z,6.23
2019-02-25T00:40:59.725Z,6.03
2019-02-25T00:43:27.984Z,5.93
2019-02-25T00:45:56.281Z,6.23
2019-02-25T00:48:24.539Z,5.90
2019-02-25T00:50:52.824Z,6.07
2019-02-25T00:53:21.071Z,4.70
2019-02-25T00:55:49.356Z,5.33
2019-02-25T00:58:17.605Z,4.23
2019-02-25T01:00:45.908Z,4.97
2019-02-25T01:03:14.156Z,5.37
2019-02-25T01:05:42.437Z,5.27
2019-02-25T01:08:10.762Z,5.00
2019-02-25T01:10:39.025Z,5.13
2019-02-25T01:13:07.303Z,3.73
2019-02-25T01:15:35.593Z,5.20
2019-02-25T01:18:03.842Z,5.90
2019-02-25T01:20:32.086Z,5.40
2019-02-25T01:23:00.373Z,5.53
2019-02-25T01:25:28.636Z,5.57
2019-02-25T01:27:56.918Z,4.73
2019-02-25T01:30:25.187Z,5.20
2019-02-25T01:32:53.460Z,4.33
2019-02-25T01:35:21.726Z,4.53
2019-02-25T01:37:49.998Z,4.63
2019-02-25T01:40:18.243Z,3.97
2019-02-25T01:42:46.522Z,4.40
2019-02-25T01:45:19.157Z,4.37
2019-02-25T01:47:47.451Z,4.17
2019-02-25T01:50:15.712Z,4.23
2019-02-25T01:52:43.952Z,4.20
2019-02-25T01:55:13.072Z,4.13
2019-02-25T01:57:41.336Z,3.87
2019-02-25T02:00:19.412Z,3.87
2019-02-25T02:02:47.682Z,3.77
2019-02-25T02:05:15.948Z,3.90
2019-02-25T02:07:44.206Z,3.70
2019-02-25T02:10:15.740Z,3.60
2019-02-25T02:12:44.004Z,3.30
2019-02-25T02:15:17.582Z,3.10
2019-02-25T02:17:45.817Z,2.80
2019-02-25T02:20:16.098Z,3.17
2019-02-25T02:22:44.355Z,2.83
2019-02-25T02:25:13.386Z,3.17
2019-02-25T02:27:41.720Z,3.20
2019-02-25T02:30:17.942Z,2.30
2019-02-25T02:32:46.200Z,2.70
2019-02-25T02:35:14.462Z,2.83
2019-02-25T02:37:42.790Z,2.80
2019-02-25T02:40:12.321Z,2.40
2019-02-25T02:42:47.115Z,2.57
2019-02-25T02:45:18.714Z,2.43
2019-02-25T02:48:01.736Z,2.67
2019-02-25T02:50:30.031Z,2.77
2019-02-25T02:52:58.272Z,3.33
2019-02-25T02:55:26.535Z,2.97
2019-02-25T02:57:54.817Z,3.20
2019-02-25T03:00:23.109Z,2.80
2019-02-25T03:02:51.436Z,3.10
2019-02-25T03:05:19.695Z,3.30
2019-02-25T03:07:48.014Z,2.90
2019-02-25T03:10:17.706Z,2.90
2019-02-25T03:12:46.053Z,2.97
2019-02-25T03:15:16.047Z,2.67
2019-02-25T03:17:44.328Z,2.70
2019-02-25T03:20:13.116Z,2.70
2019-02-25T03:22:41.401Z,2.60
2019-02-25T03:25:11.797Z,2.80
2019-02-25T03:27:40.055Z,3.03
2019-02-25T03:30:11.576Z,2.83
2019-02-25T03:32:39.854Z,2.73
2019-02-25T03:35:08.122Z,3.07
2019-02-25T03:37:36.400Z,3.90
2019-02-25T03:40:07.955Z,3.73
2019-02-25T03:42:36.220Z,4.60
2019-02-25T03:45:07.015Z,3.90
2019-02-25T03:47:35.303Z,3.37
2019-02-25T03:50:03.718Z,3.60
2019-02-25T03:52:32.016Z,2.93
2019-02-25T03:55:00.301Z,3.47
2019-02-25T03:57:28.619Z,3.10
2019-02-25T03:59:56.892Z,2.87
2019-02-25T04:02:25.187Z,2.87
2019-02-25T04:04:53.460Z,2.80
2019-02-25T04:07:21.806Z,2.77
2019-02-25T04:09:50.085Z,3.03
2019-02-25T04:12:18.333Z,2.90
2019-02-25T04:14:46.605Z,3.13
2019-02-25T04:17:14.860Z,2.90
2019-02-25T04:19:43.175Z,3.33
2019-02-25T04:22:11.478Z,2.77
2019-02-25T04:24:39.768Z,2.90
2019-02-25T04:27:08.091Z,2.30
2019-02-25T04:29:36.377Z,2.50
2019-02-25T04:32:04.648Z,2.80
2019-02-25T04:34:32.933Z,2.77
2019-02-25T04:37:01.202Z,2.67
2019-02-25T04:39:29.546Z,1.97
2019-02-25T04:41:57.808Z,2.30
2019-02-25T04:44:26.097Z,2.50
2019-02-25T04:46:54.355Z,2.70
2019-02-25T04:49:22.620Z,2.80
2019-02-25T04:51:50.855Z,2.80
2019-02-25T04:54:19.148Z,2.67
2019-02-25T04:56:47.411Z,2.80
2019-02-25T04:59:15.687Z,2.63
2019-02-25T05:01:43.960Z,2.50
2019-02-25T05:04:12.306Z,2.73
2019-02-25T05:06:40.574Z,2.67
2019-02-25T05:09:08.837Z,2.50
2019-02-25T05:11:37.687Z,2.80
2019-02-25T05:14:05.940Z,2.60
2019-02-25T05:16:34.233Z,2.60
2019-02-25T05:19:02.495Z,3.13
2019-02-25T05:21:30.788Z,2.60
2019-02-25T05:23:59.117Z,3.20
2019-02-25T05:26:27.405Z,2.83
2019-02-25T05:28:55.662Z,2.87
2019-02-25T05:31:24.024Z,3.10
2019-02-25T05:33:52.286Z,3.50
2019-02-25T05:36:20.561Z,3.30
2019-02-25T05:38:48.808Z,2.97
2019-02-25T05:41:17.108Z,3.50
2019-02-25T05:43:45.357Z,3.57
2019-02-25T05:46:13.651Z,3.50
2019-02-25T05:48:41.912Z,2.67
2019-02-25T05:51:10.233Z,3.40
2019-02-25T05:53:38.496Z,2.93
2019-02-25T05:56:06.752Z,3.07
2019-02-25T05:58:35.022Z,3.07
2019-02-25T06:01:03.315Z,3.23
2019-02-25T06:03:31.611Z,3.50
2019-02-25T06:05:59.895Z,3.13
2019-02-25T06:08:28.251Z,3.73
2019-02-25T06:10:56.605Z,4.23
2019-02-25T06:13:24.979Z,4.20
2019-02-25T06:15:53.281Z,4.13
2019-02-25T06:18:21.576Z,4.37
2019-02-25T06:20:49.832Z,4.20
2019-02-25T06:23:18.118Z,3.83
2019-02-25T06:25:46.420Z,4.30
2019-02-25T06:28:14.781Z,4.60
2019-02-25T06:30:43.030Z,3.90
2019-02-25T06:33:11.353Z,4.13
2019-02-25T06:35:39.624Z,4.40
2019-02-25T06:38:07.903Z,4.50
2019-02-25T06:40:36.172Z,4.40
2019-02-25T06:43:04.465Z,4.20
2019-02-25T06:45:34.872Z,4.07
2019-02-25T06:48:03.211Z,3.60
2019-02-25T06:50:31.501Z,3.63
2019-02-25T06:52:59.804Z,4.10
2019-02-25T06:55:28.072Z,3.87
2019-02-25T06:57:56.336Z,4.20
2019-02-25T07:00:24.630Z,4.37
2019-02-25T07:02:52.909Z,5.03
2019-02-25T07:05:25.722Z,4.73
2019-02-25T07:07:55.703Z,4.97
2019-02-25T07:10:41.665Z,4.40
2019-02-25T07:13:23.705Z,4.10
2019-02-25T07:16:11.505Z,4.10
2019-02-25T07:18:57.705Z,3.97
2019-02-25T07:21:30.405Z,4.07
2019-02-25T07:24:12.089Z,4.07
2019-02-25T07:26:42.016Z,3.90
2019-02-25T07:29:14.889Z,4.43
2019-02-25T07:31:47.852Z,3.30
2019-02-25T07:34:20.585Z,3.70
2019-02-25T07:37:06.330Z,3.37
2019-02-25T07:39:52.292Z,3.60
2019-02-25T07:42:38.577Z,3.67
2019-02-25T07:45:11.777Z,3.70
2019-02-25T07:47:50.589Z,3.90
2019-02-25T07:50:29.275Z,3.73
2019-02-25T07:53:14.255Z,4.10
2019-02-25T07:56:02.582Z,4.00
2019-02-25T07:58:31.987Z,4.20
2019-02-25T08:01:03.527Z,4.00
2019-02-25T08:03:36.287Z,3.93
2019-02-25T08:06:14.960Z,4.33
2019-02-25T08:08:59.710Z,5.07
2019-02-25T08:11:32.551Z,4.67
2019-02-25T08:14:02.501Z,3.93
2019-02-25T08:16:32.430Z,4.67
2019-02-25T08:19:05.085Z,4.87
2019-02-25T08:21:37.700Z,4.90
2019-02-25T08:24:13.374Z,4.50
2019-02-25T08:26:43.277Z,3.97
2019-02-25T08:29:22.150Z,4.80
2019-02-25T08:32:01.082Z,6.00
2019-02-25T08:34:39.995Z,4.73
2019-02-25T08:37:15.652Z,4.63
2019-02-25T08:39:51.514Z,3.93
2019-02-25T08:42:26.232Z,4.43
2019-02-25T08:44:56.167Z,4.70
2019-02-25T08:47:43.997Z,4.27
2019-02-25T08:50:13.601Z,3.30
2019-02-25T08:52:41.865Z,3.00
2019-02-25T08:55:10.665Z,3.20
2019-02-25T08:57:38.930Z,3.20
2019-02-25T09:00:10.718Z,3.17
2019-02-25T09:02:38.970Z,2.73
2019-02-25T09:05:10.646Z,2.57
2019-02-25T09:07:38.900Z,3.00
2019-02-25T09:10:10.415Z,3.17
2019-02-25T09:12:38.686Z,3.07
2019-02-25T09:15:14.523Z,2.40
2019-02-25T09:17:45.592Z,2.57
2019-02-25T09:20:15.279Z,3.20
2019-02-25T09:22:43.630Z,2.57
2019-02-25T09:25:13.860Z,3.17
2019-02-25T09:27:42.112Z,3.07
2019-02-25T09:30:13.645Z,2.77
2019-02-25T09:32:41.891Z,3.63
2019-02-25T09:35:10.157Z,2.97
2019-02-25T09:37:38.497Z,2.97
2019-02-25T09:40:12.422Z,2.83
2019-02-25T09:42:40.715Z,3.03
2019-02-25T09:45:11.704Z,3.10
2019-02-25T09:47:40.090Z,2.70
2019-02-25T09:50:16.001Z,2.40
2019-02-25T09:52:44.294Z,2.40
2019-02-25T09:55:13.590Z,2.10
2019-02-25T09:57:41.895Z,2.00
2019-02-25T10:00:17.880Z,1.60
2019-02-25T10:02:46.167Z,1.80
2019-02-25T10:05:14.406Z,1.50
2019-02-25T10:07:42.702Z,1.23
2019-02-25T10:10:15.438Z,1.93
2019-02-25T10:12:43.771Z,2.37
2019-02-25T10:15:14.472Z,2.20
2019-02-25T10:17:42.769Z,1.47
2019-02-25T10:20:11.096Z,2.03
2019-02-25T10:22:39.396Z,1.40
2019-02-25T10:25:09.491Z,2.40
2019-02-25T10:27:37.775Z,1.73
2019-02-25T10:30:14.182Z,1.70
2019-02-25T10:32:42.455Z,1.40
2019-02-25T10:35:16.637Z,1.45
2019-02-25T10:37:44.962Z,1.40
2019-02-25T10:40:15.378Z,1.50
2019-02-25T10:42:44.011Z,1.37
2019-02-25T10:45:18.363Z,1.60
2019-02-25T10:47:48.990Z,1.50
2019-02-25T10:50:16.740Z,1.40
2019-02-25T10:52:47.090Z,1.35
2019-02-25T10:55:34.427Z,1.50
2019-02-25T10:58:03.802Z,1.45
2019-02-25T11:00:32.185Z,1.60
2019-02-25T11:03:00.459Z,2.37
2019-02-25T11:05:30.573Z,2.90
2019-02-25T11:07:59.577Z,2.40
2019-02-25T11:10:38.190Z,2.08
2019-02-25T11:13:06.451Z,2.50
2019-02-25T11:15:37.443Z,2.62
2019-02-25T11:18:06.906Z,2.40
2019-02-25T11:20:36.025Z,2.45
2019-02-25T11:23:05.186Z,1.95
2019-02-25T11:25:33.476Z,1.95
2019-02-25T11:28:03.260Z,1.60
2019-02-25T11:30:31.752Z,1.12
2019-02-25T11:33:00.108Z,1.05
2019-02-25T11:35:28.479Z,0.82
2019-02-25T11:37:58.960Z,0.60
2019-02-25T11:40:28.986Z,0.80
2019-02-25T11:42:56.745Z,0.70
2019-02-25T11:45:25.027Z,0.80
2019-02-25T11:47:53.292Z,1.10
2019-02-25T11:50:21.581Z,1.25
2019-02-25T11:52:49.857Z,1.00
2019-02-25T11:55:18.122Z,0.90
2019-02-25T11:57:46.399Z,0.80
2019-02-25T12:00:27.672Z,0.80
2019-02-25T12:02:55.930Z,0.70
2019-02-25T12:05:24.177Z,0.90
2019-02-25T12:07:52.537Z,1.20
2019-02-25T12:10:20.873Z,0.53
2019-02-25T12:12:49.168Z,1.15
2019-02-25T12:15:18.657Z,0.65
2019-02-25T12:17:46.965Z,0.40
2019-02-25T12:20:15.212Z,0.60
2019-02-25T12:22:43.521Z,0.45
2019-02-25T12:25:17.812Z,0.40
2019-02-25T12:27:46.103Z,0.50
2019-02-25T12:30:22.441Z,0.60
2019-02-25T12:32:50.735Z,0.35
2019-02-25T12:35:19.006Z,1.47
2019-02-25T12:37:47.287Z,0.40
2019-02-25T12:40:18.385Z,0.42
2019-02-25T12:42:46.830Z,0.50
2019-02-25T12:45:15.433Z,0.50
2019-02-25T12:47:43.710Z,0.60
2019-02-25T12:50:15.832Z,0.40
2019-02-25T12:52:44.115Z,0.70
2019-02-25T12:55:13.632Z,0.37
2019-02-25T12:57:42.031Z,0.40
2019-02-25T13:00:19.613Z,0.50
2019-02-25T13:02:47.973Z,0.68
2019-02-25T13:05:25.969Z,0.40
2019-02-25T13:07:54.335Z,0.47
2019-02-25T13:10:22.596Z,0.50
2019-02-25T13:12:51.723Z,0.60
2019-02-25T13:15:24.261Z,0.50
2019-02-25T13:17:52.601Z,0.75
2019-02-25T13:20:20.950Z,0.60
2019-02-25T13:22:49.210Z,0.57
2019-02-25T13:25:22.555Z,0.85
2019-02-25T13:27:52.049Z,0.85
2019-02-25T13:30:20.961Z,0.70
2019-02-25T13:32:49.233Z,0.62
2019-02-25T13:35:17.608Z,0.50
2019-02-25T13:37:45.963Z,0.70
2019-02-25T13:40:15.442Z,0.50
2019-02-25T13:42:43.797Z,0.80
2019-02-25T13:45:22.042Z,0.75
2019-02-25T13:47:50.382Z,1.00
2019-02-25T13:50:19.110Z,1.40
2019-02-25T13:52:48.268Z,1.00
2019-02-25T13:55:18.661Z,0.75
2019-02-25T13:57:46.986Z,0.60
2019-02-25T14:00:20.252Z,0.70
2019-02-25T14:02:48.587Z,2.15
2019-02-25T14:05:16.931Z,1.10
2019-02-25T14:07:45.295Z,0.60
2019-02-25T14:10:14.881Z,0.70
2019-02-25T14:12:43.240Z,0.60
2019-02-25T14:15:20.977Z,0.68
2019-02-25T14:17:49.306Z,0.80
2019-02-25T14:20:20.271Z,0.60
2019-02-25T14:22:48.605Z,0.70
2019-02-25T14:25:20.010Z,0.90
2019-02-25T14:27:48.413Z,0.80
2019-02-25T14:30:25.725Z,0.80
2019-02-25T14:32:54.100Z,0.80
2019-02-25T14:35:31.328Z,1.20
2019-02-25T14:38:07.590Z,1.25
2019-02-25T14:40:32.539Z,1.15
2019-02-25T14:43:04.071Z,1.12
2019-02-25T14:45:33.486Z,1.12
2019-02-25T14:48:03.215Z,1.10
2019-02-25T14:50:31.050Z,1.45
2019-02-25T14:53:00.589Z,1.50
2019-02-25T14:55:29.407Z,1.40
2019-02-25T14:57:59.963Z,1.12
2019-02-25T15:00:29.033Z,1.10
2019-02-25T15:02:58.170Z,1.50
2019-02-25T15:05:26.521Z,1.47
2019-02-25T15:07:54.931Z,1.92
2019-02-25T15:10:26.563Z,1.70
2019-02-25T15:12:56.636Z,1.77
2019-02-25T15:15:23.847Z,2.08
2019-02-25T15:17:52.706Z,2.37
2019-02-25T15:20:23.443Z,2.52
2019-02-25T15:22:51.973Z,2.50
2019-02-25T15:25:20.752Z,2.72
2019-02-25T15:27:49.165Z,2.60
2019-02-25T15:30:30.719Z,2.80
2019-02-25T15:32:59.876Z,2.90
2019-02-25T15:35:31.813Z,2.83
2019-02-25T15:38:00.337Z,2.95
2019-02-25T15:40:28.947Z,3.00
2019-02-25T15:43:17.691Z,3.17
2019-02-25T15:45:43.732Z,3.30
2019-02-25T15:48:17.031Z,3.37
2019-02-25T15:50:47.993Z,3.17
2019-02-25T15:53:16.116Z,3.10
2019-02-25T15:55:44.665Z,3.20
2019-02-25T15:58:12.981Z,3.33
2019-02-25T16:00:41.352Z,3.00
2019-02-25T16:03:11.250Z,3.00
2019-02-25T16:05:39.713Z,3.53
2019-02-25T16:08:08.661Z,4.47
2019-02-25T16:10:36.980Z,3.70
2019-02-25T16:13:09.430Z,3.40
2019-02-25T16:15:35.342Z,4.30
2019-02-25T16:18:03.689Z,3.67
2019-02-25T16:20:32.578Z,3.83
2019-02-25T16:23:02.734Z,3.30
2019-02-25T16:25:32.200Z,3.80
2019-02-25T16:28:01.035Z,3.53
2019-02-25T16:30:30.749Z,3.30
2019-02-25T16:33:00.091Z,3.87
2019-02-25T16:35:29.218Z,4.10
2019-02-25T16:37:58.338Z,3.20
2019-02-25T16:40:29.162Z,4.00
2019-02-25T16:42:59.826Z,3.20
2019-02-25T16:45:32.395Z,3.60
2019-02-25T16:47:57.770Z,3.63
2019-02-25T16:50:26.264Z,3.50
2019-02-25T16:52:54.620Z,3.73
2019-02-25T16:55:26.978Z,3.67
2019-02-25T16:57:54.422Z,3.67
2019-02-25T17:00:25.340Z,3.70
2019-02-25T17:02:54.335Z,4.60
2019-02-25T17:05:22.752Z,4.30
2019-02-25T17:07:51.339Z,3.80
2019-02-25T17:10:26.006Z,3.80
2019-02-25T17:12:54.336Z,3.40
2019-02-25T17:15:26.299Z,3.67
2019-02-25T17:17:52.871Z,3.77
2019-02-25T17:20:22.225Z,3.47
2019-02-25T17:22:50.524Z,3.57
2019-02-25T17:25:18.846Z,3.30
2019-02-25T17:27:47.696Z,3.57
2019-02-25T17:30:20.205Z,4.10
2019-02-25T17:32:48.752Z,3.93
2019-02-25T17:35:19.582Z,4.40
2019-02-25T17:37:48.915Z,4.53
2019-02-25T17:40:18.026Z,4.33
2019-02-25T17:42:47.359Z,3.93
2019-02-25T17:45:25.126Z,4.20
2019-02-25T17:47:58.207Z,4.97
2019-02-25T17:50:24.092Z,3.50
2019-02-25T17:52:52.482Z,3.77
2019-02-25T17:55:27.077Z,3.43
2019-02-25T17:57:56.532Z,3.70
2019-02-25T18:00:36.669Z,3.23
2019-02-25T18:03:05.373Z,3.27
2019-02-25T18:05:35.818Z,4.00
2019-02-25T18:08:05.340Z,3.33
2019-02-25T18:10:33.723Z,3.90
2019-02-25T18:13:06.180Z,5.20
2019-02-25T18:15:33.127Z,3.30
2019-02-25T18:18:01.480Z,3.47
2019-02-25T18:20:29.919Z,7.23
2019-02-25T18:22:58.564Z,6.73
2019-02-25T18:25:26.938Z,5.07
2019-02-25T18:27:55.279Z,6.50
2019-02-25T18:30:30.064Z,5.20
2019-02-25T18:33:00.979Z,4.80
2019-02-25T18:35:29.471Z,4.07
2019-02-25T18:37:58.627Z,4.20
2019-02-25T18:40:27.971Z,3.50
2019-02-25T18:42:58.047Z,3.90
2019-02-25T18:45:26.348Z,4.60
2019-02-25T18:47:54.688Z,5.30
2019-02-25T18:50:24.107Z,6.53
2019-02-25T18:52:54.650Z,8.50
2019-02-25T18:55:25.444Z,6.53
2019-02-25T18:57:54.934Z,6.40
2019-02-25T19:00:29.535Z,8.67
2019-02-25T19:02:58.311Z,7.70
2019-02-25T19:05:29.251Z,6.67
2019-02-25T19:07:57.876Z,6.80
2019-02-25T19:10:26.872Z,6.37
2019-02-25T19:12:56.369Z,6.40
2019-02-25T19:15:25.266Z,5.83
2019-02-25T19:17:54.362Z,5.17
2019-02-25T19:20:22.787Z,5.70
2019-02-25T19:22:51.134Z,4.83
2019-02-25T19:25:20.904Z,4.70
2019-02-25T19:27:50.610Z,4.50
2019-02-25T19:30:19.825Z,5.00
2019-02-25T19:32:49.652Z,4.77
2019-02-25T19:35:18.010Z,4.80
2019-02-25T19:37:46.849Z,4.60
2019-02-25T19:40:24.330Z,5.90
2019-02-25T19:42:53.937Z,6.00
2019-02-25T19:45:22.220Z,6.07
2019-02-25T19:47:50.575Z,5.97
2019-02-25T19:50:21.173Z,5.87
2019-02-25T19:52:49.530Z,5.27
2019-02-25T19:55:20.969Z,5.00
2019-02-25T19:57:48.712Z,5.30
2019-02-25T20:00:22.380Z,4.70
2019-02-25T20:02:51.036Z,5.40
2019-02-25T20:05:21.596Z,6.23
2019-02-25T20:07:49.402Z,6.83
2019-02-25T20:10:17.730Z,6.70
2019-02-25T20:12:46.120Z,7.10
2019-02-25T20:15:18.771Z,6.30
2019-02-25T20:17:48.830Z,5.97
2019-02-25T20:20:17.584Z,5.80
2019-02-25T20:22:45.875Z,6.40
2019-02-25T20:25:16.644Z,7.87
2019-02-25T20:27:46.150Z,5.80
2019-02-25T20:30:16.949Z,5.13
2019-02-25T20:32:45.204Z,3.97
2019-02-25T20:35:19.946Z,4.30
2019-02-25T20:37:51.152Z,4.10
2019-02-25T20:40:21.218Z,4.73
2019-02-25T20:42:50.902Z,4.83
2019-02-25T20:45:23.627Z,5.50
2019-02-25T20:47:52.254Z,5.30
2019-02-25T20:50:22.286Z,5.17
2019-02-25T20:52:50.553Z,6.03
2019-02-25T20:55:19.067Z,5.23
2019-02-25T20:57:47.406Z,5.07
2019-02-25T21:00:18.172Z,4.80
2019-02-25T21:02:47.611Z,5.07
2019-02-25T21:05:16.980Z,4.80
2019-02-25T21:07:45.911Z,4.90
2019-02-25T21:10:16.727Z,4.53
2019-02-25T21:12:45.170Z,5.50
2019-02-25T21:15:14.914Z,5.50
2019-02-25T21:17:43.327Z,6.70
2019-02-25T21:20:15.489Z,7.00
2019-02-25T21:22:44.496Z,7.63
2019-02-25T21:25:15.064Z,8.90
2019-02-25T21:27:43.326Z,9.40
2019-02-25T21:30:18.640Z,9.30
2019-02-25T21:32:47.512Z,9.03
2019-02-25T21:35:17.851Z,8.10
2019-02-25T21:37:48.320Z,8.00
2019-02-25T21:40:17.479Z,7.40
2019-02-25T21:42:46.898Z,7.80
2019-02-25T21:45:18.292Z,7.70
2019-02-25T21:47:47.599Z,7.03
2019-02-25T21:50:16.939Z,6.93
2019-02-25T21:52:45.727Z,6.50
2019-02-25T21:55:16.854Z,6.47
2019-02-25T21:57:45.161Z,6.17
2019-02-25T22:00:20.542Z,6.20
2019-02-25T22:02:52.536Z,6.63
2019-02-25T22:05:21.305Z,6.67
2019-02-25T22:07:54.348Z,6.77
2019-02-25T22:10:20.565Z,6.97
2019-02-25T22:12:48.854Z,6.90
2019-02-25T22:15:22.133Z,6.43
2019-02-25T22:17:52.806Z,6.00
2019-02-25T22:20:22.562Z,6.40
2019-02-25T22:22:54.471Z,6.17
2019-02-25T22:25:21.273Z,5.97
2019-02-25T22:27:49.553Z,6.33
2019-02-25T22:30:18.044Z,5.63
2019-02-25T22:32:46.330Z,6.13
2019-02-25T22:35:15.228Z,6.63
2019-02-25T22:37:46.868Z,5.80
2019-02-25T22:40:16.900Z,6.37
2019-02-25T22:42:44.573Z,7.47
2019-02-25T22:45:18.891Z,6.60
2019-02-25T22:47:47.285Z,6.30
2019-02-25T22:50:15.574Z,6.57
2019-02-25T22:52:43.823Z,6.07
2019-02-25T22:55:15.385Z,6.57
2019-02-25T22:57:45.950Z,6.53
2019-02-25T23:00:22.717Z,6.30
2019-02-25T23:02:52.862Z,6.37
2019-02-25T23:05:23.279Z,5.70
2019-02-25T23:07:52.303Z,6.00
2019-02-25T23:10:21.941Z,6.23
2019-02-25T23:12:51.260Z,5.80
2019-02-25T23:15:20.545Z,6.27
2019-02-25T23:17:49.509Z,6.17
2019-02-25T23:20:17.810Z,6.03
2019-02-25T23:22:46.085Z,5.87
2019-02-25T23:25:14.440Z,6.33
2019-02-25T23:27:42.685Z,5.80
2019-02-25T23:30:12.504Z,5.70
2019-02-25T23:32:40.750Z,6.07
2019-02-25T23:35:11.468Z,6.43
2019-02-25T23:37:39.036Z,6.50
2019-02-25T23:40:12.499Z,5.60
2019-02-25T23:42:42.429Z,6.20
2019-02-25T23:45:14.906Z,6.20
2019-02-25T23:47:42.894Z,6.13
2019-02-25T23:50:14.879Z,6.23
2019-02-25T23:52:43.124Z,6.00
2019-02-25T23:55:14.649Z,6.23
2019-02-25T23:57:42.126Z,5.90
